Esquina - Secu Tirs — 2DOU6 — position and weather

sailwx.info

Track history (hours):
 
Tides and Currents Weather Stations Pressure Air Temp Water Temp Dewpoint Dewpoint Depression Visibility Wind Speed Wind Dir Waves Ship Positions

Esquina - Secu Tirs

Last reported at 2017-Dec-08 14:02 UTC. Time now 2017-Dec-11 15:03 UTC.
Position N 47°43' W 003°21'.

Type: Other ship. MMSI: 235080801.

Date/timePositionNaut miles runAvg speedWind from/ knotsBaromVisibWave heightAir tempDewpointWater temp
2017-Dec-08 14:02N 47°43' W 003°21'0 0.3
2017-Dec-08 14:00N 47°43' W 003°21'1 2.0
2017-Dec-08 13:28N 47°44' W 003°22'1 2.0
2017-Dec-08 13:00N 47°44' W 003°21'4 7.7
2017-Dec-08 12:30N 47°41' W 003°22'4 8.0
2017-Dec-08 12:00N 47°39' W 003°17'4 7.3
2017-Dec-08 11:30N 47°36' W 003°12'2 3.5
2017-Dec-08 11:00N 47°36' W 003°10'1 2.8
2017-Dec-08 10:30N 47°37' W 003°12'0 0.6
2017-Dec-08 10:00N 47°36' W 003°11'0 0.1
2017-Dec-08 09:30N 47°36' W 003°11'0 0.1
2017-Dec-08 09:00N 47°36' W 003°11'0 0.4
2017-Dec-08 08:30N 47°37' W 003°12'1 2.6
2017-Dec-08 08:00N 47°36' W 003°10'1 2.9
2017-Dec-08 07:30N 47°35' W 003°12'3 6.2
2017-Dec-08 07:00N 47°36' W 003°16'4 8.6
2017-Dec-08 06:30N 47°39' W 003°20'4 7.7
2017-Dec-08 06:00N 47°43' W 003°22'2 3.1
2017-Dec-08 05:30N 47°44' W 003°21'2 3.3
2017-Dec-08 04:59N 47°43' W 003°21'  
2017-Dec-04 10:30N 47°36' W 003°16'1 1.9
2017-Dec-04 10:00N 47°37' W 003°15'0 0.1
2017-Dec-04 09:28N 47°37' W 003°15'1 1.1
2017-Dec-04 08:59N 47°37' W 003°15'0 0.5
2017-Dec-04 08:30N 47°37' W 003°15'1 1.1
2017-Dec-04 07:58N 47°37' W 003°16'2 5.0
2017-Dec-04 07:30N 47°39' W 003°17'  
2017-Nov-29 16:58N 47°43' W 003°21'1 2.3
2017-Nov-29 16:30N 47°44' W 003°22'4 6.9
2017-Nov-29 16:00N 47°40' W 003°20'1 3.0
2017-Nov-29 15:30N 47°40' W 003°18'2 5.0
2017-Nov-29 15:00N 47°39' W 003°21'1 1.2
2017-Nov-29 14:30N 47°39' W 003°21'1 0.6
2017-Nov-29 13:43N 47°40' W 003°21'0 1.5
2017-Nov-29 13:30N 47°39' W 003°21'2 4.2
2017-Nov-29 13:00N 47°41' W 003°18'1 2.9
2017-Nov-29 12:30N 47°40' W 003°16'4 8.7
2017-Nov-29 12:00N 47°42' W 003°22'  
Track history (hours):
 
Tides and Currents Weather Stations Pressure Air Temp Water Temp Dewpoint Dewpoint Depression Visibility Wind Speed Wind Dir Waves Ship Positions

Esquina - Secu Tirs

Last reported at 2017-Dec-08 14:02 UTC. Time now 2017-Dec-11 15:03 UTC.
Position N 47°43' W 003°21'.

Type: Other ship. MMSI: 235080801.

Date/timePositionNaut miles runAvg speedWind from/ knotsBaromVisibWave heightAir tempDewpointWater temp
2017-Dec-08 14:02N 47°43' W 003°21'0 0.3
2017-Dec-08 14:00N 47°43' W 003°21'1 2.0
2017-Dec-08 13:28N 47°44' W 003°22'1 2.0
2017-Dec-08 13:00N 47°44' W 003°21'4 7.7
2017-Dec-08 12:30N 47°41' W 003°22'4 8.0
2017-Dec-08 12:00N 47°39' W 003°17'4 7.3
2017-Dec-08 11:30N 47°36' W 003°12'2 3.5
2017-Dec-08 11:00N 47°36' W 003°10'1 2.8
2017-Dec-08 10:30N 47°37' W 003°12'0 0.6
2017-Dec-08 10:00N 47°36' W 003°11'0 0.1
2017-Dec-08 09:30N 47°36' W 003°11'0 0.1
2017-Dec-08 09:00N 47°36' W 003°11'0 0.4
2017-Dec-08 08:30N 47°37' W 003°12'1 2.6
2017-Dec-08 08:00N 47°36' W 003°10'1 2.9
2017-Dec-08 07:30N 47°35' W 003°12'3 6.2
2017-Dec-08 07:00N 47°36' W 003°16'4 8.6
2017-Dec-08 06:30N 47°39' W 003°20'4 7.7
2017-Dec-08 06:00N 47°43' W 003°22'2 3.1
2017-Dec-08 05:30N 47°44' W 003°21'2 3.3
2017-Dec-08 04:59N 47°43' W 003°21'  
2017-Dec-04 10:30N 47°36' W 003°16'1 1.9
2017-Dec-04 10:00N 47°37' W 003°15'0 0.1
2017-Dec-04 09:28N 47°37' W 003°15'1 1.1
2017-Dec-04 08:59N 47°37' W 003°15'0 0.5
2017-Dec-04 08:30N 47°37' W 003°15'1 1.1
2017-Dec-04 07:58N 47°37' W 003°16'2 5.0
2017-Dec-04 07:30N 47°39' W 003°17'  
2017-Nov-29 16:58N 47°43' W 003°21'1 2.3
2017-Nov-29 16:30N 47°44' W 003°22'4 6.9
2017-Nov-29 16:00N 47°40' W 003°20'1 3.0
2017-Nov-29 15:30N 47°40' W 003°18'2 5.0
2017-Nov-29 15:00N 47°39' W 003°21'1 1.2
2017-Nov-29 14:30N 47°39' W 003°21'1 0.6
2017-Nov-29 13:43N 47°40' W 003°21'0 1.5
2017-Nov-29 13:30N 47°39' W 003°21'2 4.2
2017-Nov-29 13:00N 47°41' W 003°18'1 2.9
2017-Nov-29 12:30N 47°40' W 003°16'4 8.7
2017-Nov-29 12:00N 47°42' W 003°22'  

Dump ship's entire track history